createdAt,value
2023-01-09T00:01:41.938Z,39.90
2023-01-09T00:04:09.552Z,35.40
2023-01-09T00:06:37.403Z,46.80
2023-01-09T00:09:04.727Z,47.50
2023-01-09T00:11:31.687Z,55.30
2023-01-09T00:13:59.406Z,54.90
2023-01-09T00:16:26.650Z,61.20
2023-01-09T00:18:54.209Z,57.60
2023-01-09T00:21:21.205Z,65.80
2023-01-09T00:23:48.163Z,63.30
2023-01-09T00:26:18.161Z,69.90
2023-01-09T00:28:46.965Z,75.20
2023-01-09T00:31:14.603Z,109.80
2023-01-09T00:34:03.234Z,56.80
2023-01-09T00:36:30.205Z,55.90
2023-01-09T00:38:57.847Z,50.90
2023-01-09T00:41:31.795Z,59.50
2023-01-09T00:44:04.913Z,66.20
2023-01-09T00:46:35.871Z,60.30
2023-01-09T00:49:05.684Z,86.10
2023-01-09T00:51:32.647Z,86.80
2023-01-09T00:54:00.083Z,86.10
2023-01-09T00:56:27.050Z,82.60
2023-01-09T00:58:54.925Z,86.30
2023-01-09T01:01:22.333Z,91.00
2023-01-09T01:03:49.278Z,85.30
2023-01-09T01:06:34.965Z,92.30
2023-01-09T01:09:01.905Z,81.20
2023-01-09T01:11:29.073Z,87.30
2023-01-09T01:13:56.522Z,98.90
2023-01-09T01:16:23.498Z,71.20
2023-01-09T01:18:51.045Z,74.10
2023-01-09T01:21:18.483Z,71.80
2023-01-09T01:23:45.643Z,71.90
2023-01-09T01:26:15.439Z,75.20
2023-01-09T01:28:43.603Z,82.30
2023-01-09T01:31:17.982Z,87.50
2023-01-09T01:33:45.175Z,89.40
2023-01-09T01:36:12.446Z,88.60
2023-01-09T01:38:39.682Z,90.10
2023-01-09T01:41:07.646Z,144.80
2023-01-09T01:43:52.682Z,80.50
2023-01-09T01:46:19.589Z,87.00
2023-01-09T01:48:48.762Z,107.60
2023-01-09T01:51:18.627Z,82.10
2023-01-09T01:53:51.957Z,84.00
2023-01-09T01:56:25.682Z,88.40
2023-01-09T01:59:08.483Z,83.20
2023-01-09T02:01:41.236Z,79.90
2023-01-09T02:04:09.004Z,83.90
2023-01-09T02:06:37.838Z,73.60
2023-01-09T02:09:06.585Z,105.00
2023-01-09T02:11:34.641Z,111.80
2023-01-09T02:14:02.917Z,119.10
2023-01-09T02:16:48.274Z,118.10
2023-01-09T02:19:24.450Z,96.50
2023-01-09T02:21:51.282Z,108.70
2023-01-09T02:24:57.044Z,97.90
2023-01-09T02:27:37.281Z,91.30
2023-01-09T02:30:16.243Z,80.80
2023-01-09T02:32:59.016Z,90.50
2023-01-09T02:35:34.971Z,89.50
2023-01-09T02:38:15.949Z,90.50
2023-01-09T02:40:53.968Z,87.40
2023-01-09T02:43:21.506Z,79.70
2023-01-09T02:45:48.745Z,97.30
2023-01-09T02:48:15.946Z,96.40
2023-01-09T02:51:01.721Z,88.50
2023-01-09T02:53:45.444Z,91.30
2023-01-09T02:56:41.859Z,93.70
2023-01-09T02:59:28.684Z,90.30
2023-01-09T03:02:07.877Z,86.90
2023-01-09T03:04:48.148Z,91.20
2023-01-09T03:07:31.575Z,82.10
2023-01-09T03:10:09.403Z,81.90
2023-01-09T03:12:38.531Z,72.20
2023-01-09T03:15:10.928Z,70.30
2023-01-09T03:17:43.734Z,88.40
2023-01-09T03:20:21.453Z,79.90
2023-01-09T03:22:56.633Z,82.20
2023-01-09T03:25:28.412Z,63.80
2023-01-09T03:28:10.324Z,56.40
2023-01-09T03:30:44.375Z,78.40
2023-01-09T03:33:17.298Z,97.70
2023-01-09T03:35:51.175Z,88.50
2023-01-09T03:38:18.069Z,91.10
2023-01-09T03:40:45.071Z,78.20
2023-01-09T03:43:12.381Z,85.60
2023-01-09T03:45:39.330Z,82.30
2023-01-09T03:48:06.879Z,79.60
2023-01-09T03:50:33.900Z,78.50
2023-01-09T03:53:00.860Z,80.80
2023-01-09T03:55:27.863Z,81.90
2023-01-09T03:57:54.941Z,78.10
2023-01-09T04:00:22.886Z,76.10
2023-01-09T04:02:49.920Z,76.50
2023-01-09T04:05:17.171Z,83.60
2023-01-09T04:07:44.114Z,80.30
2023-01-09T04:10:11.429Z,63.30
2023-01-09T04:12:38.945Z,67.50
2023-01-09T04:15:06.685Z,66.80
2023-01-09T04:17:33.725Z,60.80
2023-01-09T04:20:00.777Z,56.00
2023-01-09T04:22:27.823Z,57.70
2023-01-09T04:24:57.247Z,48.20
2023-01-09T04:27:27.969Z,57.00
2023-01-09T04:29:54.908Z,52.80
2023-01-09T04:32:22.183Z,42.80
2023-01-09T04:34:49.429Z,52.40
2023-01-09T04:37:16.462Z,57.50
2023-01-09T04:39:46.557Z,51.80
2023-01-09T04:42:13.503Z,56.10
2023-01-09T04:44:40.680Z,58.10
2023-01-09T04:47:07.589Z,58.10
2023-01-09T04:49:34.428Z,53.50
2023-01-09T04:52:01.376Z,50.80
2023-01-09T04:54:28.215Z,49.20
2023-01-09T04:56:55.274Z,32.80
2023-01-09T04:59:22.302Z,44.10
2023-01-09T05:01:49.388Z,45.70
2023-01-09T05:04:16.523Z,48.80
2023-01-09T05:06:43.544Z,48.40
2023-01-09T05:09:10.512Z,48.70
2023-01-09T05:11:37.444Z,51.20
2023-01-09T05:14:04.384Z,42.50
2023-01-09T05:16:32.477Z,32.80
2023-01-09T05:19:00.822Z,36.30
2023-01-09T05:21:28.171Z,36.50
2023-01-09T05:23:55.003Z,43.20
2023-01-09T05:26:26.313Z,51.30
2023-01-09T05:28:56.782Z,57.10
2023-01-09T05:31:25.897Z,51.30
2023-01-09T05:33:53.746Z,56.50
2023-01-09T05:36:20.596Z,48.30
2023-01-09T05:38:47.625Z,44.30
2023-01-09T05:41:14.460Z,40.40
2023-01-09T05:43:41.605Z,38.90
2023-01-09T05:46:08.696Z,35.10
2023-01-09T05:48:35.624Z,37.40
2023-01-09T05:51:02.662Z,37.30
2023-01-09T05:53:29.483Z,36.90
2023-01-09T05:55:56.319Z,30.30
2023-01-09T05:58:23.265Z,33.00
2023-01-09T06:00:50.310Z,30.10
2023-01-09T06:03:17.287Z,32.30
2023-01-09T06:05:44.743Z,33.60
2023-01-09T06:08:11.789Z,29.00
2023-01-09T06:10:38.902Z,31.20
2023-01-09T06:13:06.064Z,29.30
2023-01-09T06:15:33.084Z,27.10
2023-01-09T06:18:00.064Z,30.30
2023-01-09T06:20:27.496Z,32.20
2023-01-09T06:22:54.424Z,27.20
2023-01-09T06:25:21.402Z,21.70
2023-01-09T06:27:49.586Z,25.30
2023-01-09T06:30:18.748Z,23.20
2023-01-09T06:32:49.250Z,15.40
2023-01-09T06:35:21.129Z,16.50
2023-01-09T06:37:51.495Z,8.00
2023-01-09T06:40:21.888Z,9.40
2023-01-09T06:42:50.486Z,7.10
2023-01-09T06:45:18.102Z,10.80
2023-01-09T06:47:45.471Z,8.10
2023-01-09T06:50:12.968Z,11.00
2023-01-09T06:52:40.404Z,5.90
2023-01-09T06:55:08.783Z,5.00
2023-01-09T06:57:35.732Z,5.40
2023-01-09T07:00:04.138Z,6.10
2023-01-09T07:02:31.043Z,5.80
2023-01-09T07:04:57.910Z,5.10
2023-01-09T07:07:24.850Z,6.60
2023-01-09T07:09:52.391Z,7.70
2023-01-09T07:12:19.347Z,11.10
2023-01-09T07:14:46.456Z,10.60
2023-01-09T07:17:14.001Z,12.20
2023-01-09T07:19:41.251Z,11.70
2023-01-09T07:22:08.872Z,8.10
2023-01-09T07:24:35.809Z,8.40
2023-01-09T07:27:03.198Z,10.50
2023-01-09T07:29:30.892Z,6.20
2023-01-09T07:31:58.000Z,5.30
2023-01-09T07:34:24.848Z,5.70
2023-01-09T07:36:52.141Z,6.20
2023-01-09T07:39:19.008Z,7.40
2023-01-09T07:41:46.479Z,7.80
2023-01-09T07:44:14.717Z,8.60
2023-01-09T07:46:42.287Z,14.00
2023-01-09T07:49:10.059Z,8.50
2023-01-09T07:51:39.726Z,6.20
2023-01-09T07:54:07.489Z,9.30
2023-01-09T07:56:34.767Z,8.30
2023-01-09T07:59:02.063Z,10.60
2023-01-09T08:01:29.761Z,8.50
2023-01-09T08:03:57.328Z,9.60
2023-01-09T08:06:24.527Z,8.80
2023-01-09T08:08:51.734Z,11.10
2023-01-09T08:11:18.703Z,10.50
2023-01-09T08:13:45.572Z,11.40
2023-01-09T08:16:12.587Z,9.70
2023-01-09T08:18:39.575Z,8.80
2023-01-09T08:21:07.241Z,13.80
2023-01-09T08:23:34.653Z,7.50
2023-01-09T08:26:01.711Z,6.90
2023-01-09T08:28:29.093Z,7.30
2023-01-09T08:30:56.397Z,13.90
2023-01-09T08:33:23.609Z,6.90
2023-01-09T08:35:50.567Z,6.10
2023-01-09T08:38:17.792Z,7.70
2023-01-09T08:40:47.429Z,8.00
2023-01-09T08:43:33.587Z,7.30
2023-01-09T08:46:20.316Z,5.50
2023-01-09T08:48:50.486Z,6.10
2023-01-09T08:51:17.433Z,9.40
2023-01-09T08:53:44.457Z,12.90
2023-01-09T08:56:11.350Z,8.80
2023-01-09T08:58:38.303Z,8.50
2023-01-09T09:01:07.132Z,10.70
2023-01-09T09:03:34.069Z,11.10
2023-01-09T09:06:01.097Z,10.50
2023-01-09T09:08:28.005Z,10.60
2023-01-09T09:10:54.949Z,9.50
2023-01-09T09:13:21.805Z,27.80
2023-01-09T09:15:48.841Z,61.20
2023-01-09T09:18:15.967Z,75.10
2023-01-09T09:20:43.300Z,113.40
2023-01-09T09:23:10.857Z,176.30
2023-01-09T09:25:38.940Z,87.80
2023-01-09T09:28:07.022Z,95.80
2023-01-09T09:30:34.645Z,38.80
2023-01-09T09:33:05.118Z,50.80
2023-01-09T09:35:34.213Z,40.20
2023-01-09T09:38:05.336Z,31.00
2023-01-09T09:40:52.048Z,27.40
2023-01-09T09:44:06.367Z,16.30
2023-01-09T09:47:12.420Z,16.40
2023-01-09T09:50:14.852Z,14.10
2023-01-09T09:53:10.821Z,16.10
2023-01-09T09:55:40.645Z,18.30
2023-01-09T09:58:38.807Z,24.30
2023-01-09T10:01:08.408Z,28.30
2023-01-09T10:03:49.834Z,32.10
2023-01-09T10:07:10.142Z,42.60
2023-01-09T10:09:59.248Z,34.50
2023-01-09T10:12:45.649Z,44.90
2023-01-09T10:15:30.510Z,43.40
2023-01-09T10:18:27.074Z,42.10
2023-01-09T10:21:02.396Z,37.20
2023-01-09T10:23:51.134Z,39.00
2023-01-09T10:26:30.004Z,52.20
2023-01-09T10:29:22.461Z,68.60
2023-01-09T10:31:53.412Z,47.10
2023-01-09T10:37:06.725Z,32.90
2023-01-09T10:39:48.477Z,33.90
2023-01-09T10:42:53.624Z,26.50
2023-01-09T10:45:20.641Z,39.00
2023-01-09T10:47:49.978Z,20.90
2023-01-09T10:50:23.490Z,46.80
2023-01-09T10:52:53.742Z,25.00
2023-01-09T10:56:00.032Z,31.90
2023-01-09T10:58:27.731Z,18.90
2023-01-09T11:00:57.287Z,23.50
2023-01-09T11:03:28.596Z,25.40
2023-01-09T11:05:58.802Z,40.10
2023-01-09T11:08:42.373Z,28.40
2023-01-09T11:11:11.333Z,28.00
2023-01-09T11:13:43.915Z,12.30
2023-01-09T11:16:10.989Z,13.20
2023-01-09T11:18:50.050Z,14.40
2023-01-09T11:21:38.565Z,16.00
2023-01-09T11:24:25.909Z,12.70
2023-01-09T11:27:12.898Z,9.90
2023-01-09T11:29:44.208Z,8.70
2023-01-09T11:32:23.738Z,11.60
2023-01-09T11:34:50.849Z,13.20
2023-01-09T11:37:29.991Z,8.60
2023-01-09T11:39:59.175Z,13.40
2023-01-09T11:42:47.730Z,14.30
2023-01-09T11:45:23.894Z,15.10
2023-01-09T11:47:51.248Z,11.20
2023-01-09T11:50:24.419Z,10.60
2023-01-09T11:53:15.610Z,7.50
2023-01-09T11:58:17.736Z,17.00
2023-01-09T12:01:03.172Z,18.10
2023-01-09T12:03:49.171Z,21.90
2023-01-09T12:06:26.689Z,13.30
2023-01-09T12:09:05.580Z,8.80
2023-01-09T12:12:02.107Z,8.10
2023-01-09T12:14:31.915Z,6.90
2023-01-09T12:17:07.869Z,9.00
2023-01-09T12:20:03.502Z,7.50
2023-01-09T12:22:57.809Z,9.70
2023-01-09T12:25:35.282Z,14.00
2023-01-09T12:28:33.838Z,9.50
2023-01-09T12:31:22.859Z,14.80
2023-01-09T12:34:08.996Z,7.20
2023-01-09T12:36:54.213Z,9.90
2023-01-09T12:39:47.648Z,11.30
2023-01-09T12:42:44.259Z,13.40
2023-01-09T12:45:32.490Z,17.90
2023-01-09T12:48:17.879Z,11.80
2023-01-09T12:51:10.098Z,12.00
2023-01-09T12:53:56.293Z,10.70
2023-01-09T12:56:32.788Z,9.50
2023-01-09T12:59:32.624Z,11.50
2023-01-09T13:02:24.431Z,10.70
2023-01-09T13:05:02.954Z,15.40
2023-01-09T13:07:41.034Z,14.00
2023-01-09T13:10:24.255Z,12.30
2023-01-09T13:12:53.477Z,8.90
2023-01-09T13:15:28.212Z,11.70
2023-01-09T13:18:22.211Z,9.40
2023-01-09T13:20:57.365Z,11.20
2023-01-09T13:23:27.569Z,13.50
2023-01-09T13:26:02.367Z,10.20
2023-01-09T13:28:36.767Z,17.80
2023-01-09T13:31:43.623Z,20.00
2023-01-09T13:34:21.748Z,17.50
2023-01-09T13:36:56.008Z,16.70
2023-01-09T13:39:24.885Z,13.70
2023-01-09T13:42:24.070Z,10.80
2023-01-09T13:44:57.119Z,17.30
2023-01-09T13:47:28.283Z,15.30
2023-01-09T13:50:02.479Z,10.40
2023-01-09T13:52:43.246Z,14.00
2023-01-09T13:55:15.412Z,18.80
2023-01-09T13:58:15.938Z,18.20
2023-01-09T14:00:48.832Z,14.70
2023-01-09T14:03:38.620Z,15.10
2023-01-09T14:06:16.943Z,30.60
2023-01-09T14:08:45.909Z,22.00
2023-01-09T14:11:20.495Z,34.90
2023-01-09T14:13:55.936Z,21.30
2023-01-09T14:16:25.712Z,32.10
2023-01-09T14:19:00.460Z,35.80
2023-01-09T14:21:44.459Z,25.40
2023-01-09T14:24:20.609Z,25.20
2023-01-09T14:26:50.269Z,21.50
2023-01-09T14:29:29.937Z,21.20
2023-01-09T14:32:21.973Z,23.80
2023-01-09T14:34:54.844Z,19.80
2023-01-09T14:37:22.734Z,22.90
2023-01-09T14:39:51.973Z,28.40
2023-01-09T14:42:25.105Z,25.80
2023-01-09T14:45:31.014Z,40.90
2023-01-09T14:48:06.296Z,37.60
2023-01-09T14:50:51.186Z,35.20
2023-01-09T14:53:34.688Z,15.60
2023-01-09T14:56:06.891Z,17.30
2023-01-09T14:58:37.826Z,21.70
2023-01-09T15:01:10.993Z,26.10
2023-01-09T15:03:41.203Z,11.90
2023-01-09T15:06:20.613Z,15.40
2023-01-09T15:08:56.897Z,13.60
2023-01-09T15:11:24.864Z,14.40
2023-01-09T15:13:54.635Z,16.40
2023-01-09T15:16:25.106Z,16.50
2023-01-09T15:19:00.462Z,13.20
2023-01-09T15:21:33.418Z,16.80
2023-01-09T15:24:18.996Z,18.90
2023-01-09T15:26:53.026Z,13.10
2023-01-09T15:29:20.951Z,18.10
2023-01-09T15:32:13.212Z,19.00
2023-01-09T15:34:43.840Z,16.90
2023-01-09T15:37:28.766Z,21.70
2023-01-09T15:39:58.383Z,15.90
2023-01-09T15:42:47.770Z,86.60
2023-01-09T15:45:28.142Z,46.40
2023-01-09T15:48:14.334Z,23.60
2023-01-09T15:50:42.770Z,28.50
2023-01-09T15:53:18.731Z,23.30
2023-01-09T15:55:49.794Z,24.20
2023-01-09T16:01:01.923Z,23.90
2023-01-09T16:03:29.825Z,16.30
2023-01-09T16:06:05.961Z,14.00
2023-01-09T16:08:43.001Z,18.50
2023-01-09T16:11:31.725Z,13.90
2023-01-09T16:14:25.488Z,19.00
2023-01-09T16:16:54.663Z,26.20
2023-01-09T16:19:52.849Z,24.20
2023-01-09T16:22:26.104Z,42.10
2023-01-09T16:24:55.270Z,26.90
2023-01-09T16:27:30.383Z,85.50
2023-01-09T16:30:03.008Z,39.60
2023-01-09T16:32:33.782Z,48.30
2023-01-09T16:35:07.998Z,50.60
2023-01-09T16:37:36.682Z,84.20
2023-01-09T16:40:18.832Z,44.40
2023-01-09T16:43:02.060Z,57.20
2023-01-09T16:45:33.811Z,43.10
2023-01-09T16:48:03.248Z,61.00
2023-01-09T16:50:30.663Z,51.30
2023-01-09T16:53:00.166Z,33.00
2023-01-09T16:55:27.331Z,36.00
2023-01-09T16:57:55.588Z,57.00
2023-01-09T17:00:22.905Z,38.30
2023-01-09T17:02:50.259Z,31.00
2023-01-09T17:05:17.242Z,33.10
2023-01-09T17:07:44.847Z,35.50
2023-01-09T17:10:23.255Z,32.80
2023-01-09T17:12:50.225Z,52.10
2023-01-09T17:15:17.569Z,36.80
2023-01-09T17:17:44.642Z,34.00
2023-01-09T17:20:17.536Z,35.70
2023-01-09T17:22:44.928Z,46.20
2023-01-09T17:25:36.050Z,44.80
2023-01-09T17:28:23.009Z,188.60
2023-01-09T17:30:50.150Z,108.20
2023-01-09T17:33:19.294Z,36.10
2023-01-09T17:35:46.683Z,241.30
2023-01-09T17:38:15.766Z,50.30
2023-01-09T17:40:44.164Z,133.20
2023-01-09T17:43:12.506Z,38.30
2023-01-09T17:45:43.987Z,39.90
2023-01-09T17:48:19.610Z,98.30
2023-01-09T17:50:48.178Z,57.40
2023-01-09T17:53:15.880Z,76.70
2023-01-09T17:55:42.870Z,83.70
2023-01-09T17:58:25.023Z,62.20
2023-01-09T18:00:52.369Z,90.40
2023-01-09T18:03:21.032Z,68.70
2023-01-09T18:05:48.203Z,64.60
2023-01-09T18:08:15.350Z,97.90
2023-01-09T18:10:44.317Z,55.00
2023-01-09T18:13:11.797Z,56.80
2023-01-09T18:15:43.115Z,64.60
2023-01-09T18:18:11.831Z,48.70
2023-01-09T18:20:43.443Z,71.90
2023-01-09T18:23:11.757Z,118.50
2023-01-09T18:25:43.447Z,71.20
2023-01-09T18:28:15.601Z,48.50
2023-01-09T18:30:47.791Z,61.80
2023-01-09T18:33:15.828Z,51.20
2023-01-09T18:35:43.675Z,55.50
2023-01-09T18:38:11.921Z,69.60
2023-01-09T18:40:39.277Z,139.50
2023-01-09T18:43:08.074Z,49.00
2023-01-09T18:45:38.669Z,74.50
2023-01-09T18:48:08.019Z,177.60
2023-01-09T18:50:35.286Z,58.50
2023-01-09T18:53:02.303Z,104.30
2023-01-09T18:55:29.555Z,142.90
2023-01-09T18:57:56.713Z,174.60
2023-01-09T19:00:24.233Z,108.80
2023-01-09T19:02:51.673Z,93.90
2023-01-09T19:05:18.712Z,131.50
2023-01-09T19:07:45.836Z,102.80
2023-01-09T19:10:13.289Z,101.60
2023-01-09T19:12:40.558Z,78.70
2023-01-09T19:15:11.775Z,61.90
2023-01-09T19:17:39.753Z,64.80
2023-01-09T19:20:08.489Z,85.80
2023-01-09T19:22:35.542Z,132.10
2023-01-09T19:25:02.707Z,52.30
2023-01-09T19:27:30.913Z,80.30
2023-01-09T19:29:58.119Z,92.70
2023-01-09T19:32:25.981Z,142.70
2023-01-09T19:34:53.232Z,140.60
2023-01-09T19:37:20.295Z,87.10
2023-01-09T19:39:47.485Z,67.30
2023-01-09T19:42:15.033Z,56.10
2023-01-09T19:44:42.233Z,55.40
2023-01-09T19:47:11.119Z,58.50
2023-01-09T19:49:38.804Z,65.60
2023-01-09T19:52:06.042Z,81.70
2023-01-09T19:54:33.516Z,70.10
2023-01-09T19:57:00.731Z,60.10
2023-01-09T19:59:28.233Z,53.10
2023-01-09T20:01:55.828Z,54.40
2023-01-09T20:04:23.788Z,60.90
2023-01-09T20:06:51.204Z,59.60
2023-01-09T20:09:27.737Z,58.50
2023-01-09T20:11:54.987Z,59.80
2023-01-09T20:14:23.202Z,62.40
2023-01-09T20:16:54.399Z,62.60
2023-01-09T20:19:21.855Z,60.20
2023-01-09T20:21:49.753Z,68.40
2023-01-09T20:24:17.487Z,80.10
2023-01-09T20:26:46.717Z,102.00
2023-01-09T20:29:14.590Z,87.30
2023-01-09T20:31:42.113Z,73.60
2023-01-09T20:34:12.595Z,68.70
2023-01-09T20:36:40.218Z,72.80
2023-01-09T20:39:08.633Z,72.00
2023-01-09T20:41:36.012Z,75.00
2023-01-09T20:44:07.619Z,77.60
2023-01-09T20:46:38.420Z,82.20
2023-01-09T20:49:08.074Z,110.70
2023-01-09T20:51:36.647Z,121.60
2023-01-09T20:54:04.342Z,111.90
2023-01-09T20:56:32.624Z,111.40
2023-01-09T20:59:00.647Z,96.90
2023-01-09T21:01:28.647Z,90.00
2023-01-09T21:03:57.218Z,82.90
2023-01-09T21:06:26.178Z,87.80
2023-01-09T21:08:53.579Z,76.30
2023-01-09T21:11:22.645Z,78.50
2023-01-09T21:13:51.210Z,76.00
2023-01-09T21:16:21.821Z,67.60
2023-01-09T21:18:49.263Z,63.30
2023-01-09T21:21:19.228Z,78.20
2023-01-09T21:23:48.149Z,80.00
2023-01-09T21:26:17.286Z,77.20
2023-01-09T21:28:49.672Z,81.00
2023-01-09T21:31:20.723Z,82.00
2023-01-09T21:36:16.677Z,93.90
2023-01-09T21:38:44.126Z,79.50
2023-01-09T21:41:29.811Z,85.30
2023-01-09T21:44:15.354Z,78.30
2023-01-09T21:46:58.100Z,78.30
2023-01-09T21:49:27.443Z,74.60
2023-01-09T21:51:55.624Z,74.80
2023-01-09T21:54:24.242Z,71.30
2023-01-09T21:56:52.560Z,69.50
2023-01-09T21:59:20.205Z,66.00
2023-01-09T22:01:49.643Z,65.80
2023-01-09T22:04:19.329Z,72.10
2023-01-09T22:06:46.728Z,64.90
2023-01-09T22:09:14.206Z,61.10
2023-01-09T22:11:43.092Z,54.00
2023-01-09T22:14:15.536Z,45.70
2023-01-09T22:16:44.114Z,48.80
2023-01-09T22:19:12.738Z,43.20
2023-01-09T22:21:39.644Z,46.80
2023-01-09T22:24:07.335Z,44.20
2023-01-09T22:26:34.787Z,44.80
2023-01-09T22:29:01.738Z,39.20
2023-01-09T22:31:33.307Z,38.40
2023-01-09T22:34:02.758Z,41.40
2023-01-09T22:36:31.370Z,38.50
2023-01-09T22:39:00.489Z,37.10
2023-01-09T22:41:30.078Z,33.60
2023-01-09T22:43:57.416Z,39.40
2023-01-09T22:46:24.672Z,42.00
2023-01-09T22:48:52.092Z,40.40
2023-01-09T22:51:21.425Z,40.40
2023-01-09T22:53:49.206Z,44.70
2023-01-09T22:56:19.211Z,38.70
2023-01-09T22:58:52.003Z,40.50
2023-01-09T23:01:20.080Z,36.20
2023-01-09T23:04:12.031Z,39.80
2023-01-09T23:06:38.970Z,39.40
2023-01-09T23:09:06.342Z,43.60
2023-01-09T23:11:53.902Z,45.00
2023-01-09T23:14:22.398Z,50.40
2023-01-09T23:16:49.373Z,43.50
2023-01-09T23:19:16.372Z,39.10
2023-01-09T23:21:44.949Z,36.00
2023-01-09T23:24:14.242Z,36.20
2023-01-09T23:26:42.950Z,37.10
2023-01-09T23:29:11.339Z,34.10
2023-01-09T23:31:38.444Z,34.00
2023-01-09T23:34:08.561Z,29.90
2023-01-09T23:36:36.208Z,27.00
2023-01-09T23:39:04.650Z,26.60
2023-01-09T23:41:50.589Z,24.30
2023-01-09T23:44:17.634Z,25.90
2023-01-09T23:46:44.481Z,28.30
2023-01-09T23:49:12.131Z,27.60
2023-01-09T23:51:39.763Z,31.90
2023-01-09T23:54:09.085Z,34.20
2023-01-09T23:56:36.645Z,35.60
2023-01-09T23:59:07.653Z,34.90
